Time;durP1;ratioP1;P1;durP2;ratioP2;P2;SDS_P1;SDS_P2;PMS_P1;PMS_P2;Temp;Humidity;BMP_temperature;BMP_pressure;BME280_temperature;BME280_humidity;BME280_pressure;Samples;Min_cycle;Max_cycle;Signal;HPM_P1;HPM_P2
2022/07/02 00:07:27;;;;;;;9.07;4.72;;;;;;;14.75;100.00;101018.13;20906914;28;20061;-72
2022/07/02 00:17:28;;;;;;;5.85;2.75;;;;;;;14.66;100.00;101013.03;20908695;28;20105;-72
2022/07/02 00:27:31;;;;;;;9.25;2.95;;;;;;;14.52;100.00;101010.75;20907111;28;20075;-72
2022/07/02 00:37:33;;;;;;;5.10;2.70;;;;;;;14.35;100.00;101013.72;20905638;28;20048;-72
2022/07/02 00:47:36;;;;;;;5.00;2.50;;;;;;;13.98;100.00;101019.72;20906994;28;20045;-72
2022/07/02 00:57:38;;;;;;;4.88;2.63;;;;;;;13.51;100.00;101017.97;20905158;28;20041;-72
2022/07/02 01:07:45;;;;;;;4.97;2.70;;;;;;;13.38;100.00;101017.34;20904084;28;20110;-72
2022/07/02 01:17:47;;;;;;;6.45;2.55;;;;;;;13.27;100.00;101008.75;20904391;28;20045;-72
2022/07/02 01:27:48;;;;;;;5.15;2.78;;;;;;;13.21;100.00;101008.84;20902935;28;20059;-72
2022/07/02 01:37:50;;;;;;;4.80;2.83;;;;;;;13.26;100.00;101017.53;20902673;28;20140;-72
2022/07/02 01:47:51;;;;;;;6.07;2.70;;;;;;;13.20;100.00;101017.63;20906298;28;20644;-72
2022/07/02 01:57:53;;;;;;;4.38;2.65;;;;;;;13.16;100.00;101016.78;20902276;28;20417;-72
2022/07/02 02:07:54;;;;;;;5.18;2.50;;;;;;;13.06;100.00;101005.56;20899482;28;20053;-72
2022/07/02 02:17:56;;;;;;;7.15;3.33;;;;;;;12.76;100.00;101003.44;20899727;28;20045;-72
2022/07/02 02:27:58;;;;;;;5.80;2.83;;;;;;;12.50;100.00;101015.19;20907325;28;20052;-71
2022/07/02 02:38:00;;;;;;;5.13;2.65;;;;;;;12.52;100.00;101008.16;20915724;28;20045;-71
2022/07/02 02:48:02;;;;;;;5.85;2.50;;;;;;;12.22;100.00;101013.81;20915644;28;20053;-71
2022/07/02 02:58:03;;;;;;;5.70;3.15;;;;;;;12.29;100.00;101018.09;20914368;28;20045;-72
2022/07/02 03:08:05;;;;;;;6.07;3.40;;;;;;;12.18;100.00;101020.00;20913046;28;20497;-72
2022/07/02 03:18:06;;;;;;;5.78;3.55;;;;;;;12.12;100.00;101017.41;20913018;28;20429;-72
2022/07/02 03:28:08;;;;;;;6.05;2.80;;;;;;;12.06;100.00;101028.88;20912379;28;20049;-71
2022/07/02 03:38:09;;;;;;;5.90;2.75;;;;;;;12.18;100.00;101033.13;20909650;28;20040;-71
2022/07/02 03:48:11;;;;;;;4.90;2.80;;;;;;;12.15;100.00;101047.13;20910893;28;20059;-72
2022/07/02 03:58:12;;;;;;;5.38;2.60;;;;;;;12.12;100.00;101044.56;20909691;28;20076;-72
2022/07/02 04:08:14;;;;;;;5.65;2.92;;;;;;;12.28;100.00;101050.50;20908788;28;20052;-72
2022/07/02 04:18:15;;;;;;;4.72;2.60;;;;;;;12.55;100.00;101046.63;20914516;28;20045;-72
2022/07/02 04:28:17;;;;;;;7.25;2.65;;;;;;;12.69;100.00;101046.44;20908082;28;20469;-72
2022/07/02 04:38:19;;;;;;;4.18;1.80;;;;;;;14.27;100.00;101028.78;20905865;28;20048;-72
2022/07/02 04:48:20;;;;;;;6.78;1.98;;;;;;;15.31;100.00;101024.66;20905676;28;20462;-72
2022/07/02 04:58:22;;;;;;;5.32;2.03;;;;;;;14.97;100.00;101024.63;20904946;28;20056;-72
2022/07/02 05:08:26;;;;;;;7.97;2.10;;;;;;;13.98;100.00;101035.53;20903555;28;20072;-72
2022/07/02 05:18:28;;;;;;;6.18;2.33;;;;;;;14.13;100.00;101036.97;20903664;28;20053;-73
2022/07/02 05:28:29;;;;;;;5.00;2.28;;;;;;;14.37;100.00;101043.50;20903516;28;20425;-73
2022/07/02 05:38:31;;;;;;;8.05;2.90;;;;;;;14.76;100.00;101043.59;20894759;28;20049;-73
2022/07/02 05:48:36;;;;;;;10.63;2.80;;;;;;;15.06;100.00;101050.78;20822624;28;20516;-73
2022/07/02 05:58:37;;;;;;;10.55;3.20;;;;;;;15.33;100.00;101038.69;20818830;28;20073;-72
2022/07/02 06:08:39;;;;;;;6.75;2.97;;;;;;;15.42;100.00;101040.22;20816562;28;20059;-72
2022/07/02 06:18:41;;;;;;;4.28;2.40;;;;;;;15.88;100.00;101052.25;20818492;28;20050;-72
2022/07/02 06:28:42;;;;;;;9.57;2.45;;;;;;;16.17;100.00;101039.09;20818562;28;20057;-73
2022/07/02 06:38:44;;;;;;;5.18;2.50;;;;;;;16.53;100.00;101038.94;20818630;28;20080;-73
2022/07/02 06:48:45;;;;;;;5.60;2.28;;;;;;;17.16;100.00;101047.59;20827939;28;20100;-73
2022/07/02 06:58:47;;;;;;;13.52;3.47;;;;;;;17.34;100.00;101036.38;20818572;28;20049;-73
2022/07/02 07:08:55;;;;;;;7.55;2.92;;;;;;;17.72;100.00;101031.53;20870267;28;20063;-73
2022/07/02 07:19:05;;;;;;;6.07;1.85;;;;;;;18.07;100.00;101038.28;20905044;28;20481;-72
2022/07/02 07:29:07;;;;;;;7.15;2.28;;;;;;;18.36;100.00;101028.38;20904461;28;20056;-73
2022/07/02 07:39:09;;;;;;;4.68;2.15;;;;;;;18.65;100.00;101025.47;20902166;28;20099;-73
2022/07/02 07:49:11;;;;;;;6.68;2.22;;;;;;;19.04;100.00;101006.22;20904008;28;20051;-73
2022/07/02 07:59:12;;;;;;;8.73;2.00;;;;;;;19.40;100.00;101000.28;20901818;28;20076;-72
2022/07/02 08:09:14;;;;;;;6.93;1.70;;;;;;;19.80;100.00;100990.66;20901893;28;20540;-73
2022/07/02 08:19:16;;;;;;;6.10;1.60;;;;;;;20.28;100.00;100971.59;20900981;28;20050;-73
2022/07/02 08:29:17;;;;;;;2.42;1.10;;;;;;;20.91;98.94;100960.59;20899518;28;20064;-73
2022/07/02 08:39:19;;;;;;;3.45;1.05;;;;;;;21.22;80.11;100960.78;20898303;28;20049;-73
2022/07/02 08:49:21;;;;;;;1.80;0.70;;;;;;;21.81;74.43;100936.44;20898608;28;20053;-73
2022/07/02 08:59:22;;;;;;;1.55;0.63;;;;;;;22.14;67.59;100929.28;20897867;28;20478;-73
2022/07/02 09:09:26;;;;;;;4.47;0.57;;;;;;;22.61;64.02;100916.88;20896532;28;20424;-73
2022/07/02 09:19:27;;;;;;;3.63;0.40;;;;;;;22.83;52.23;100898.66;20902321;28;20159;-72
2022/07/02 09:29:50;;;;;;;2.30;0.60;;;;;;;23.20;52.21;100893.84;20887421;28;20132;-72
2022/07/02 09:39:53;;;;;;;1.95;0.47;;;;;;;23.61;49.54;100893.94;20893952;28;20186;-72
2022/07/02 09:49:54;;;;;;;1.63;0.50;;;;;;;23.76;45.84;100882.34;20894549;28;20060;-72
2022/07/02 10:00:04;;;;;;;0.95;0.40;;;;;;;24.05;40.62;100885.84;20894023;28;20478;-73
2022/07/02 10:10:06;;;;;;;2.42;0.60;;;;;;;24.37;42.47;100874.03;20892407;28;20052;-72
2022/07/02 10:20:09;;;;;;;3.70;0.65;;;;;;;24.54;45.85;100863.06;20893511;28;20506;-72
2022/07/02 10:30:12;;;;;;;3.55;1.00;;;;;;;24.95;42.33;100870.09;20891947;28;20056;-72
2022/07/02 10:40:20;;;;;;;3.87;0.50;;;;;;;24.94;41.14;100865.72;20892229;28;20051;-72
2022/07/02 10:50:40;;;;;;;1.20;0.52;;;;;;;25.27;42.81;100847.34;20900944;28;20435;-72
2022/07/02 11:00:42;;;;;;;1.05;0.50;;;;;;;25.18;43.61;100845.31;20907047;28;20073;-73
2022/07/02 11:10:48;;;;;;;2.05;0.60;;;;;;;25.50;41.06;100832.31;20907245;28;20118;-73
2022/07/02 11:20:50;;;;;;;2.30;0.60;;;;;;;25.55;41.06;100822.13;20906242;28;20087;-73
2022/07/02 11:30:57;;;;;;;1.92;0.40;;;;;;;25.51;40.24;100811.72;20905079;28;20075;-73
2022/07/02 11:40:59;;;;;;;2.22;0.60;;;;;;;25.66;41.08;100794.53;20904899;28;20051;-73
2022/07/02 11:51:00;;;;;;;1.88;0.75;;;;;;;25.59;39.92;100777.19;20906277;28;20120;-73
2022/07/02 12:01:24;;;;;;;7.60;0.73;;;;;;;25.80;42.64;100766.72;20908541;28;20517;-73
2022/07/02 12:11:27;;;;;;;0.95;0.55;;;;;;;25.75;38.82;100756.34;20900826;28;20049;-73
2022/07/02 12:21:34;;;;;;;2.38;0.68;;;;;;;25.90;40.13;100730.19;20901305;28;20059;-73
2022/07/02 12:31:47;;;;;;;1.60;0.60;;;;;;;25.89;37.02;100720.44;20899750;28;20053;-73
2022/07/02 12:41:49;;;;;;;5.53;0.70;;;;;;;25.72;37.58;100708.25;20899526;28;20084;-73
2022/07/02 12:51:58;;;;;;;1.80;0.52;;;;;;;26.00;39.31;100693.66;20898181;28;20048;-73
2022/07/02 13:01:59;;;;;;;1.33;0.80;;;;;;;25.96;38.14;100689.47;20897598;28;20051;-73
2022/07/02 13:12:01;;;;;;;3.22;0.70;;;;;;;26.20;37.05;100665.28;20896804;28;20402;-73
2022/07/02 13:22:04;;;;;;;1.85;0.70;;;;;;;26.30;37.41;100660.94;20896275;28;20425;-73
2022/07/02 13:32:06;;;;;;;2.05;0.50;;;;;;;26.43;36.73;100634.00;20894117;28;20055;-73
2022/07/02 13:42:08;;;;;;;2.20;0.70;;;;;;;26.34;36.96;100610.53;20895274;28;20069;-73
2022/07/02 13:52:09;;;;;;;2.65;0.95;;;;;;;26.52;35.58;100600.22;20894830;28;20057;-73
2022/07/02 14:02:12;;;;;;;2.00;0.60;;;;;;;26.53;37.99;100601.91;20893039;28;20052;-73
2022/07/02 14:12:13;;;;;;;0.93;0.40;;;;;;;26.83;37.37;100602.16;20893617;28;20067;-73
2022/07/02 14:22:18;;;;;;;2.97;0.82;;;;;;;26.86;34.41;100591.16;20899703;28;20053;-73
2022/07/02 14:32:19;;;;;;;2.10;0.40;;;;;;;27.04;33.36;100579.91;20916356;28;20053;-73
2022/07/02 14:42:21;;;;;;;1.88;0.50;;;;;;;26.86;35.32;100579.56;20909571;28;20048;-73
2022/07/02 14:52:29;;;;;;;1.30;0.70;;;;;;;27.02;34.17;100557.66;20908108;28;20083;-73
2022/07/02 15:02:30;;;;;;;1.35;0.47;;;;;;;27.31;33.23;100556.16;20907650;28;20045;-73
2022/07/02 15:12:32;;;;;;;1.95;0.80;;;;;;;27.24;33.76;100540.66;20906808;28;20053;-73
2022/07/02 15:22:40;;;;;;;1.83;0.50;;;;;;;27.36;33.37;100521.66;20906903;28;20067;-74
2022/07/02 15:32:43;;;;;;;1.38;0.55;;;;;;;27.70;33.89;100516.09;20903204;28;20052;-73
2022/07/02 15:42:45;;;;;;;1.37;0.83;;;;;;;27.68;32.23;100507.28;20903296;28;20413;-73
2022/07/02 15:53:01;;;;;;;2.72;0.73;;;;;;;27.59;33.24;100491.94;20903859;28;20059;-73
2022/07/02 16:03:03;;;;;;;1.42;0.55;;;;;;;27.41;34.08;100485.47;20902490;28;20103;-73
2022/07/02 16:13:11;;;;;;;3.33;0.70;;;;;;;27.73;33.52;100480.88;20901831;28;20088;-73
2022/07/02 16:23:13;;;;;;;1.85;1.02;;;;;;;27.82;33.84;100469.31;20901437;28;20159;-73
2022/07/02 16:33:30;;;;;;;1.15;0.55;;;;;;;27.89;33.05;100463.44;20900111;28;20493;-73
2022/07/02 16:43:34;;;;;;;0.85;0.43;;;;;;;27.86;32.63;100465.38;20899272;28;20052;-73
2022/07/02 16:53:36;;;;;;;2.25;0.70;;;;;;;27.79;33.12;100455.31;20899125;28;20049;-71
2022/07/02 17:03:40;;;;;;;1.30;0.63;;;;;;;27.90;35.50;100455.22;20906101;28;20156;-73
2022/07/02 17:13:42;;;;;;;2.35;0.77;;;;;;;27.74;34.77;100450.31;20897331;28;20438;-73
2022/07/02 17:23:44;;;;;;;3.45;1.10;;;;;;;27.80;34.27;100428.25;20896675;28;20053;-73
2022/07/02 17:33:45;;;;;;;1.77;0.77;;;;;;;27.61;35.16;100433.50;20895364;28;20060;-73
2022/07/02 17:43:47;;;;;;;3.35;0.65;;;;;;;27.50;35.80;100417.41;20895796;28;20494;-73
2022/07/02 17:53:48;;;;;;;2.47;0.75;;;;;;;27.33;36.57;100422.41;20894756;28;20498;-73
2022/07/02 18:03:50;;;;;;;2.47;0.90;;;;;;;27.26;38.63;100406.94;20892292;28;20041;-73
2022/07/02 18:13:51;;;;;;;1.45;0.73;;;;;;;27.20;37.74;100396.72;20893600;28;20048;-73
2022/07/02 18:23:53;;;;;;;3.42;1.10;;;;;;;26.89;41.86;100387.69;20893531;28;20059;-73
2022/07/02 18:33:55;;;;;;;3.85;1.65;;;;;;;26.71;40.54;100380.19;20892400;28;20456;-73
2022/07/02 18:43:58;;;;;;;3.28;1.70;;;;;;;26.37;40.98;100389.31;20892460;28;20045;-73
2022/07/02 18:54:00;;;;;;;5.90;3.80;;;;;;;25.70;43.03;100388.34;20892322;28;20153;-73
2022/07/02 19:04:01;;;;;;;6.45;1.70;;;;;;;25.19;45.73;100388.75;20891651;28;20056;-73
2022/07/02 19:14:03;;;;;;;4.20;1.13;;;;;;;24.78;47.40;100392.75;20904069;28;20621;-73
2022/07/02 19:24:07;;;;;;;1.92;0.90;;;;;;;24.41;48.46;100401.78;20906349;28;20045;-73
2022/07/02 19:34:08;;;;;;;;;;;;;;;24.04;50.84;100402.59;20912833;28;20413;-73
2022/07/02 19:44:10;;;;;;;2.60;0.90;;;;;;;23.39;60.73;100410.75;20904321;28;20304;-73
2022/07/02 19:54:12;;;;;;;2.42;1.10;;;;;;;22.63;64.37;100419.41;20903928;28;20080;-73
2022/07/02 20:04:13;;;;;;;2.40;1.02;;;;;;;22.34;67.01;100417.78;20902823;28;20041;-73
2022/07/02 20:14:15;;;;;;;5.45;1.63;;;;;;;22.03;69.04;100417.00;20901965;28;20059;-73
2022/07/02 20:24:16;;;;;;;3.75;1.40;;;;;;;21.78;71.09;100431.00;20900463;28;20045;-73
2022/07/02 20:34:18;;;;;;;3.97;1.20;;;;;;;21.44;74.92;100429.56;20900689;28;20056;-72
2022/07/02 20:44:20;;;;;;;3.95;1.52;;;;;;;21.18;77.77;100431.94;20900374;28;20075;-72
2022/07/02 20:54:23;;;;;;;5.03;1.58;;;;;;;20.81;81.13;100430.56;20882239;28;20132;-72
2022/07/02 21:04:24;;;;;;;2.70;1.50;;;;;;;20.52;85.28;100426.91;20898237;28;20053;-72
2022/07/02 21:14:26;;;;;;;4.63;1.70;;;;;;;20.44;85.72;100432.63;20897722;28;20045;-72
2022/07/02 21:24:28;;;;;;;5.65;1.90;;;;;;;20.51;87.98;100448.28;20896580;28;20053;-72
2022/07/02 21:34:29;;;;;;;3.22;1.38;;;;;;;20.18;90.63;100450.03;20895883;28;20057;-73
2022/07/02 21:44:31;;;;;;;1.98;1.23;;;;;;;19.89;92.75;100448.09;20895621;28;20048;-73
2022/07/02 21:54:32;;;;;;;3.33;1.33;;;;;;;19.47;95.81;100454.69;20894651;28;20452;-72
2022/07/02 22:04:34;;;;;;;2.58;1.30;;;;;;;19.33;99.06;100454.53;20917735;23;20076;-69
2022/07/02 22:14:36;;;;;;;3.92;1.60;;;;;;;19.10;100.00;100451.25;20901218;28;20057;-69
2022/07/02 22:24:37;;;;;;;2.78;1.23;;;;;;;18.95;100.00;100449.34;20900450;28;20718;-68
2022/07/02 22:34:40;;;;;;;4.47;1.70;;;;;;;18.82;100.00;100446.44;20899231;28;20053;-68
2022/07/02 22:44:41;;;;;;;3.75;1.48;;;;;;;18.54;100.00;100446.03;20907081;28;20053;-68
2022/07/02 22:54:43;;;;;;;4.18;1.50;;;;;;;18.31;100.00;100449.78;20914896;28;20056;-68
2022/07/02 23:04:45;;;;;;;4.55;1.90;;;;;;;18.20;100.00;100447.63;20914166;28;20094;-68
2022/07/02 23:14:47;;;;;;;4.47;1.48;;;;;;;18.02;100.00;100462.59;20913342;28;20055;-68
2022/07/02 23:24:48;;;;;;;4.85;1.70;;;;;;;17.72;100.00;100463.91;20912630;28;20457;-68
2022/07/02 23:34:50;;;;;;;5.95;1.90;;;;;;;17.68;100.00;100469.38;20912188;28;20072;-68
2022/07/02 23:44:51;;;;;;;5.78;2.10;;;;;;;17.63;100.00;100481.94;20911927;28;20083;-68
2022/07/02 23:54:53;;;;;;;7.07;2.38;;;;;;;17.49;100.00;100483.47;20909490;28;20048;-67
